Portada
METAR-TAF:

METAR-TAF

Aeroports :

Aeroport Internacional de Bahrain

Bahrain, Bahrain

latitud: 26-16N, longitud: 050-39E, altitud: 2 m

Observació

L'informe es va fer fa 16 minuts, a les 20:30 UTC
Vent 8 kt del Nord-Oest
Temperatura 30°C
Humitat 55%
Pressió 1008 hPa
Visibilitat 10 km o més
sense núvols per sota de 1500 mi sense presència de cumulonimbus.

METAR: OBBI 262030Z 32008KT CAVOK 30/20 Q1008 NOSIG

Hora: 23:46 (20:46 UTC)

Pronòstic

L'informe es va fer fa 3 hores i 46 minuts, a les 17:00 UTC
Pronòstic vàlid del 26 a les 18 UTC al 28 a les 00 UTC
Vent 14 kt del Nord/Nord-Oest
Visibilitat 10 km o més
sense núvols per sota de 1500 mi sense presència de cumulonimbus.
Evolucionant progressivament
l' 27 a les 17 UTC al 27 a les 19 UTC
Vent 5 kt del Nord-Oest

TAF: OBBI 261700Z 2618/2800 34014KT CAVOK BECMG 2717/2719 32005KT

Observacions i pronòstics meteorològics de més de 4000 aeroports (METAR i TAF).

Les estacions disponibles són els punts grocs i vermells al mapa.

Posi el ratolí al punt desitjat per veure el nom de l'estació.

Feu clic per veure les observacions i els pronòstics meteorològics.

Per canviar el mapa: feu clic els botons verds amb una creu de color negre per apropar; al botó verd amb un guió per allunyar la imatge; o en les fletxes verdes per a mapes adjacents.


METAR-TAF: